createdAt,value
2023-04-17T00:00:03.054Z,22.05
2023-04-17T00:00:34.686Z,22.05
2023-04-17T00:01:06.325Z,22.04
2023-04-17T00:01:38.103Z,22.05
2023-04-17T00:02:09.833Z,22.04
2023-04-17T00:02:41.604Z,22.04
2023-04-17T00:03:13.449Z,22.05
2023-04-17T00:03:45.487Z,22.06
2023-04-17T00:04:17.335Z,22.05
2023-04-17T00:04:49.177Z,22.04
2023-04-17T00:05:21.086Z,22.06
2023-04-17T00:05:52.668Z,22.05
2023-04-17T00:06:24.312Z,22.04
2023-04-17T00:06:55.896Z,22.05
2023-04-17T00:07:27.508Z,22.05
2023-04-17T00:07:59.039Z,22.06
2023-04-17T00:08:30.639Z,22.05
2023-04-17T00:09:02.257Z,22.06
2023-04-17T00:09:33.994Z,22.03
2023-04-17T00:10:09.137Z,22.05
2023-04-17T00:10:40.961Z,22.04
2023-04-17T00:11:12.575Z,22.05
2023-04-17T00:11:44.140Z,22.05
2023-04-17T00:12:15.741Z,22.05
2023-04-17T00:12:47.287Z,22.04
2023-04-17T00:13:18.819Z,22.03
2023-04-17T00:13:50.374Z,22.06
2023-04-17T00:14:21.969Z,22.03
2023-04-17T00:14:53.593Z,22.05
2023-04-17T00:15:25.148Z,22.05
2023-04-17T00:15:56.796Z,22.05
2023-04-17T00:16:28.395Z,22.05
2023-04-17T00:16:59.965Z,22.03
2023-04-17T00:17:31.556Z,22.05
2023-04-17T00:18:03.162Z,22.05
2023-04-17T00:18:34.675Z,22.03
2023-04-17T00:19:06.209Z,22.04
2023-04-17T00:19:37.795Z,22.03
2023-04-17T00:20:09.504Z,22.04
2023-04-17T00:20:40.984Z,22.05
2023-04-17T00:21:12.531Z,22.04
2023-04-17T00:21:44.077Z,22.06
2023-04-17T00:22:15.582Z,22.05
2023-04-17T00:22:47.122Z,22.04
2023-04-17T00:23:26.344Z,22.05
2023-04-17T00:23:58.023Z,22.05
2023-04-17T00:24:29.575Z,22.05
2023-04-17T00:25:01.282Z,22.05
2023-04-17T00:25:32.808Z,22.05
2023-04-17T00:26:04.413Z,22.05
2023-04-17T00:26:36.199Z,22.05
2023-04-17T00:27:07.707Z,22.04
2023-04-17T00:27:39.268Z,22.03
2023-04-17T00:28:10.818Z,22.05
2023-04-17T00:28:42.398Z,22.04
2023-04-17T00:29:14.042Z,22.06
2023-04-17T00:29:45.605Z,22.06
2023-04-17T00:30:17.218Z,22.03
2023-04-17T00:30:48.655Z,22.05
2023-04-17T00:31:20.258Z,22.04
2023-04-17T00:31:51.851Z,22.05
2023-04-17T00:32:23.412Z,22.03
2023-04-17T00:32:55.085Z,22.04
2023-04-17T00:33:26.634Z,22.04
2023-04-17T00:33:58.135Z,22.05
2023-04-17T00:34:29.723Z,22.04
2023-04-17T00:35:01.226Z,22.05
2023-04-17T00:35:33.146Z,22.05
2023-04-17T00:36:04.933Z,22.03
2023-04-17T00:36:36.656Z,22.04
2023-04-17T00:37:08.282Z,22.05
2023-04-17T00:37:39.825Z,22.05
2023-04-17T00:38:11.420Z,22.05
2023-04-17T00:38:43.064Z,22.04
2023-04-17T00:39:14.846Z,22.03
2023-04-17T00:39:46.462Z,22.03
2023-04-17T00:40:18.075Z,22.03
2023-04-17T00:40:49.642Z,22.04
2023-04-17T00:41:21.190Z,22.03
2023-04-17T00:41:52.741Z,22.04
2023-04-17T00:42:24.322Z,22.03
2023-04-17T00:43:02.042Z,22.04
2023-04-17T00:43:33.596Z,22.03
2023-04-17T00:44:05.197Z,22.03
2023-04-17T00:44:36.987Z,22.03
2023-04-17T00:45:08.774Z,22.02
2023-04-17T00:45:40.561Z,22.03
2023-04-17T00:46:12.178Z,22.05
2023-04-17T00:46:43.763Z,22.03
2023-04-17T00:47:15.266Z,22.03
2023-04-17T00:47:47.571Z,22.04
2023-04-17T00:48:19.226Z,22.02
2023-04-17T00:48:50.840Z,22.03
2023-04-17T00:49:22.310Z,22.03
2023-04-17T00:49:53.887Z,22.03
2023-04-17T00:50:26.180Z,22.03
2023-04-17T00:50:57.794Z,22.04
2023-04-17T00:51:29.406Z,22.05
2023-04-17T00:52:00.921Z,22.03
2023-04-17T00:52:32.455Z,22.04
2023-04-17T00:53:04.038Z,22.03
2023-04-17T00:53:35.583Z,22.03
2023-04-17T00:54:07.335Z,22.04
2023-04-17T00:54:38.979Z,22.03
2023-04-17T00:55:10.489Z,22.03
2023-04-17T00:55:42.135Z,22.03
2023-04-17T00:56:13.836Z,22.05
2023-04-17T00:56:45.370Z,22.02
2023-04-17T00:57:17.080Z,22.03
2023-04-17T00:57:48.586Z,22.03
2023-04-17T00:58:20.134Z,22.04
2023-04-17T00:58:51.688Z,22.03
2023-04-17T00:59:23.230Z,22.03
2023-04-17T00:59:55.483Z,22.03
2023-04-17T01:00:27.040Z,22.04
2023-04-17T01:00:59.060Z,22.03
2023-04-17T01:01:30.706Z,22.05
2023-04-17T01:02:02.438Z,22.03
2023-04-17T01:02:34.258Z,22.05
2023-04-17T01:03:06.353Z,22.03
2023-04-17T01:03:38.224Z,22.05
2023-04-17T01:04:10.062Z,22.05
2023-04-17T01:04:41.801Z,22.03
2023-04-17T01:05:13.363Z,22.05
2023-04-17T01:05:44.901Z,22.03
2023-04-17T01:06:16.578Z,22.05
2023-04-17T01:06:48.223Z,22.05
2023-04-17T01:07:19.750Z,22.05
2023-04-17T01:07:51.311Z,22.05
2023-04-17T01:08:22.953Z,22.06
2023-04-17T01:08:54.509Z,22.06
2023-04-17T01:09:26.027Z,22.05
2023-04-17T01:09:57.594Z,22.05
2023-04-17T01:10:29.106Z,22.06
2023-04-17T01:11:00.724Z,22.06
2023-04-17T01:11:32.181Z,22.06
2023-04-17T01:12:21.824Z,22.06
2023-04-17T01:13:04.864Z,22.07
2023-04-17T01:13:48.868Z,22.05
2023-04-17T01:14:20.402Z,22.06
2023-04-17T01:14:54.372Z,22.05
2023-04-17T01:15:25.966Z,22.05
2023-04-17T01:15:57.480Z,22.05
2023-04-17T01:16:29.019Z,22.06
2023-04-17T01:17:00.643Z,22.05
2023-04-17T01:17:32.395Z,22.05
2023-04-17T01:18:04.061Z,22.06
2023-04-17T01:18:35.658Z,22.06
2023-04-17T01:19:07.550Z,22.06
2023-04-17T01:19:39.062Z,22.06
2023-04-17T01:20:10.760Z,22.06
2023-04-17T01:20:42.367Z,22.06
2023-04-17T01:21:14.091Z,22.06
2023-04-17T01:21:45.599Z,22.06
2023-04-17T01:22:17.107Z,22.05
2023-04-17T01:22:51.889Z,22.06
2023-04-17T01:23:23.404Z,22.05
2023-04-17T01:23:54.939Z,22.06
2023-04-17T01:24:26.461Z,22.06
2023-04-17T01:24:58.006Z,22.05
2023-04-17T01:25:29.603Z,22.05
2023-04-17T01:26:01.166Z,22.05
2023-04-17T01:26:32.726Z,22.06
2023-04-17T01:27:04.410Z,22.05
2023-04-17T01:27:35.912Z,22.06
2023-04-17T01:28:07.658Z,22.06
2023-04-17T01:28:39.442Z,22.06
2023-04-17T01:29:11.272Z,22.06
2023-04-17T01:29:43.154Z,22.06
2023-04-17T01:30:14.805Z,22.06
2023-04-17T01:30:46.416Z,22.06
2023-04-17T01:31:18.022Z,22.05
2023-04-17T01:31:49.593Z,22.06
2023-04-17T01:32:21.119Z,22.06
2023-04-17T01:32:53.761Z,22.07
2023-04-17T01:33:25.428Z,22.06
2023-04-17T01:33:56.915Z,22.06
2023-04-17T01:34:28.478Z,22.05
2023-04-17T01:35:00.062Z,22.06
2023-04-17T01:35:31.609Z,22.06
2023-04-17T01:36:03.200Z,22.05
2023-04-17T01:36:34.721Z,22.06
2023-04-17T01:37:06.259Z,22.06
2023-04-17T01:37:37.802Z,22.05
2023-04-17T01:38:09.597Z,22.07
2023-04-17T01:38:41.152Z,22.06
2023-04-17T01:39:12.969Z,22.06
2023-04-17T01:39:44.739Z,22.07
2023-04-17T01:40:16.395Z,22.06
2023-04-17T01:40:47.946Z,22.07
2023-04-17T01:41:19.436Z,22.05
2023-04-17T01:41:50.959Z,22.06
2023-04-17T01:42:22.507Z,22.06
2023-04-17T01:42:54.059Z,22.06
2023-04-17T01:43:25.691Z,22.06
2023-04-17T01:43:57.217Z,22.05
2023-04-17T01:44:28.793Z,22.06
2023-04-17T01:45:00.407Z,22.05
2023-04-17T01:45:32.012Z,22.05
2023-04-17T01:46:03.676Z,22.05
2023-04-17T01:46:35.213Z,22.05
2023-04-17T01:47:06.759Z,22.05
2023-04-17T01:47:38.365Z,22.05
2023-04-17T01:48:09.873Z,22.06
2023-04-17T01:48:41.469Z,22.05
2023-04-17T01:49:13.910Z,22.05
2023-04-17T01:49:45.467Z,22.05
2023-04-17T01:50:17.078Z,22.05
2023-04-17T01:50:48.541Z,22.05
2023-04-17T01:51:20.072Z,22.06
2023-04-17T01:51:51.606Z,22.05
2023-04-17T01:52:23.207Z,22.06
2023-04-17T01:52:54.628Z,22.06
2023-04-17T01:53:26.194Z,22.06
2023-04-17T01:53:57.798Z,22.05
2023-04-17T01:54:38.377Z,22.05
2023-04-17T01:55:10.321Z,22.06
2023-04-17T01:55:41.848Z,22.06
2023-04-17T01:56:13.438Z,22.06
2023-04-17T01:56:44.983Z,22.05
2023-04-17T01:57:16.502Z,22.06
2023-04-17T01:57:48.935Z,22.05
2023-04-17T01:58:20.536Z,22.05
2023-04-17T01:58:52.074Z,22.05
2023-04-17T01:59:23.781Z,22.05
2023-04-17T01:59:55.368Z,22.05
2023-04-17T02:00:26.856Z,22.05
2023-04-17T02:00:58.603Z,22.06
2023-04-17T02:01:30.800Z,22.04
2023-04-17T02:02:02.659Z,22.05
2023-04-17T02:02:34.488Z,22.06
2023-04-17T02:03:06.327Z,22.06
2023-04-17T02:03:38.219Z,22.06
2023-04-17T02:04:10.115Z,22.05
2023-04-17T02:04:41.978Z,22.06
2023-04-17T02:05:13.797Z,22.05
2023-04-17T02:05:45.962Z,22.05
2023-04-17T02:06:17.568Z,22.05
2023-04-17T02:06:49.170Z,22.05
2023-04-17T02:07:20.824Z,22.06
2023-04-17T02:07:52.395Z,22.07
2023-04-17T02:08:24.066Z,22.07
2023-04-17T02:08:55.618Z,22.07
2023-04-17T02:09:27.288Z,22.08
2023-04-17T02:09:59.012Z,22.08
2023-04-17T02:10:30.595Z,22.07
2023-04-17T02:11:02.160Z,22.06
2023-04-17T02:11:33.743Z,22.07
2023-04-17T02:12:05.474Z,22.07
2023-04-17T02:12:37.017Z,22.06
2023-04-17T02:13:08.876Z,22.08
2023-04-17T02:13:40.682Z,22.07
2023-04-17T02:14:12.301Z,22.07
2023-04-17T02:14:43.857Z,22.08
2023-04-17T02:15:15.573Z,22.07
2023-04-17T02:15:47.190Z,22.08
2023-04-17T02:16:18.790Z,22.06
2023-04-17T02:16:50.364Z,22.07
2023-04-17T02:17:22.030Z,22.07
2023-04-17T02:17:53.704Z,22.06
2023-04-17T02:18:25.365Z,22.06
2023-04-17T02:18:56.913Z,22.08
2023-04-17T02:19:28.389Z,22.07
2023-04-17T02:19:59.935Z,22.08
2023-04-17T02:20:31.847Z,22.08
2023-04-17T02:21:03.489Z,22.08
2023-04-17T02:21:35.087Z,22.07
2023-04-17T02:22:06.735Z,22.07
2023-04-17T02:22:38.308Z,22.06
2023-04-17T02:23:09.852Z,22.06
2023-04-17T02:23:41.503Z,22.07
2023-04-17T02:24:13.091Z,22.06
2023-04-17T02:24:44.735Z,22.07
2023-04-17T02:25:16.327Z,22.07
2023-04-17T02:25:47.894Z,22.06
2023-04-17T02:26:19.477Z,22.06
2023-04-17T02:26:51.003Z,22.07
2023-04-17T02:27:22.562Z,22.07
2023-04-17T02:27:54.363Z,22.08
2023-04-17T02:28:25.943Z,22.07
2023-04-17T02:28:57.473Z,22.07
2023-04-17T02:29:29.142Z,22.07
2023-04-17T02:30:00.782Z,22.06
2023-04-17T02:30:32.465Z,22.07
2023-04-17T02:31:07.347Z,22.07
2023-04-17T02:31:39.822Z,22.07
2023-04-17T02:32:11.447Z,22.06
2023-04-17T02:32:43.098Z,22.06
2023-04-17T02:33:14.720Z,22.06
2023-04-17T02:33:46.298Z,22.06
2023-04-17T02:34:17.856Z,22.07
2023-04-17T02:34:49.368Z,22.06
2023-04-17T02:35:21.120Z,22.06
2023-04-17T02:35:52.678Z,22.07
2023-04-17T02:36:24.307Z,22.07
2023-04-17T02:36:55.816Z,22.06
2023-04-17T02:37:27.379Z,22.09
2023-04-17T02:37:58.837Z,22.08
2023-04-17T02:38:30.351Z,22.07
2023-04-17T02:39:01.864Z,22.07
2023-04-17T02:39:33.342Z,22.07
2023-04-17T02:40:05.205Z,22.08
2023-04-17T02:40:36.750Z,22.09
2023-04-17T02:41:08.292Z,22.07
2023-04-17T02:41:39.870Z,22.08
2023-04-17T02:42:11.397Z,22.06
2023-04-17T02:42:43.040Z,22.07
2023-04-17T02:43:32.610Z,22.08
2023-04-17T02:44:04.247Z,22.08
2023-04-17T02:44:35.818Z,22.07
2023-04-17T02:45:07.788Z,22.07
2023-04-17T02:45:39.413Z,22.09
2023-04-17T02:46:11.025Z,22.07
2023-04-17T02:46:42.671Z,22.07
2023-04-17T02:47:14.319Z,22.09
2023-04-17T02:47:45.929Z,22.09
2023-04-17T02:48:17.525Z,22.08
2023-04-17T02:48:49.028Z,22.07
2023-04-17T02:49:20.567Z,22.07
2023-04-17T02:49:52.094Z,22.07
2023-04-17T02:50:23.751Z,22.07
2023-04-17T02:50:55.214Z,22.07
2023-04-17T02:51:26.758Z,22.07
2023-04-17T02:51:58.362Z,22.07
2023-04-17T02:52:30.063Z,22.07
2023-04-17T02:53:01.655Z,22.08
2023-04-17T02:53:33.387Z,22.08
2023-04-17T02:54:04.914Z,22.08
2023-04-17T02:54:36.529Z,22.07
2023-04-17T02:55:08.287Z,22.07
2023-04-17T02:55:39.908Z,22.07
2023-04-17T02:56:11.446Z,22.08
2023-04-17T02:56:43.206Z,22.07
2023-04-17T02:57:14.780Z,22.08
2023-04-17T02:57:46.317Z,22.08
2023-04-17T02:58:17.887Z,22.08
2023-04-17T02:58:49.428Z,22.07
2023-04-17T02:59:20.954Z,22.06
2023-04-17T02:59:52.519Z,22.07
2023-04-17T03:00:24.199Z,22.07
2023-04-17T03:01:00.321Z,22.07
2023-04-17T03:01:32.075Z,22.05
2023-04-17T03:02:03.898Z,22.05
2023-04-17T03:02:35.625Z,22.04
2023-04-17T03:03:07.423Z,22.03
2023-04-17T03:03:39.310Z,22.03
2023-04-17T03:04:11.074Z,22.03
2023-04-17T03:04:42.791Z,22.03
2023-04-17T03:05:14.315Z,22.03
2023-04-17T03:05:45.912Z,22.05
2023-04-17T03:06:17.517Z,22.02
2023-04-17T03:06:49.007Z,22.03
2023-04-17T03:07:22.245Z,22.03
2023-04-17T03:07:53.764Z,22.03
2023-04-17T03:08:25.398Z,22.03
2023-04-17T03:08:56.977Z,22.03
2023-04-17T03:09:28.545Z,22.04
2023-04-17T03:10:00.044Z,22.04
2023-04-17T03:10:31.600Z,22.02
2023-04-17T03:11:03.132Z,22.03
2023-04-17T03:11:34.823Z,22.04
2023-04-17T03:12:06.460Z,22.03
2023-04-17T03:12:38.024Z,22.03
2023-04-17T03:13:09.572Z,22.03
2023-04-17T03:13:41.111Z,22.02
2023-04-17T03:14:12.702Z,22.02
2023-04-17T03:14:44.346Z,22.03
2023-04-17T03:15:16.167Z,22.02
2023-04-17T03:15:47.723Z,22.01
2023-04-17T03:16:19.359Z,22.02
2023-04-17T03:16:51.012Z,22.02
2023-04-17T03:17:22.612Z,22.02
2023-04-17T03:17:54.194Z,22.02
2023-04-17T03:18:25.815Z,22.01
2023-04-17T03:18:57.364Z,22.02
2023-04-17T03:19:29.005Z,22.02
2023-04-17T03:20:00.591Z,22.03
2023-04-17T03:20:32.205Z,22.02
2023-04-17T03:21:03.757Z,22.03
2023-04-17T03:21:35.488Z,22.02
2023-04-17T03:22:07.093Z,22.03
2023-04-17T03:22:38.604Z,22.03
2023-04-17T03:23:10.208Z,22.02
2023-04-17T03:23:41.714Z,22.01
2023-04-17T03:24:13.438Z,22.02
2023-04-17T03:24:44.968Z,22.01
2023-04-17T03:25:16.557Z,22.02
2023-04-17T03:25:48.315Z,22.02
2023-04-17T03:26:19.935Z,22.01
2023-04-17T03:26:51.565Z,22.01
2023-04-17T03:27:23.126Z,22.01
2023-04-17T03:27:54.707Z,22.01
2023-04-17T03:28:26.246Z,22.02
2023-04-17T03:28:57.756Z,22.01
2023-04-17T03:29:29.280Z,22.01
2023-04-17T03:30:03.461Z,22.02
2023-04-17T03:30:35.014Z,22.02
2023-04-17T03:31:06.588Z,22.01
2023-04-17T03:31:38.213Z,22.01
2023-04-17T03:32:10.010Z,22.01
2023-04-17T03:32:41.565Z,22.02
2023-04-17T03:33:13.165Z,22.02
2023-04-17T03:33:44.768Z,22.02
2023-04-17T03:34:19.129Z,22.01
2023-04-17T03:34:50.665Z,22.00
2023-04-17T03:35:22.237Z,22.01
2023-04-17T03:35:53.776Z,22.02
2023-04-17T03:36:25.333Z,22.01
2023-04-17T03:36:56.939Z,22.00
2023-04-17T03:37:28.595Z,22.01
2023-04-17T03:38:00.218Z,22.02
2023-04-17T03:38:31.742Z,22.02
2023-04-17T03:39:03.391Z,22.01
2023-04-17T03:39:34.987Z,22.02
2023-04-17T03:40:06.987Z,22.01
2023-04-17T03:40:38.551Z,22.01
2023-04-17T03:41:10.152Z,22.01
2023-04-17T03:41:41.734Z,22.01
2023-04-17T03:42:13.259Z,22.02
2023-04-17T03:42:44.841Z,22.02
2023-04-17T03:43:16.439Z,22.02
2023-04-17T03:43:47.916Z,22.01
2023-04-17T03:44:19.430Z,22.02
2023-04-17T03:44:50.999Z,22.01
2023-04-17T03:45:22.561Z,22.00
2023-04-17T03:45:54.120Z,22.01
2023-04-17T03:46:25.626Z,22.01
2023-04-17T03:46:57.246Z,22.00
2023-04-17T03:47:28.879Z,22.01
2023-04-17T03:48:00.986Z,22.02
2023-04-17T03:48:32.695Z,22.00
2023-04-17T03:49:04.325Z,22.01
2023-04-17T03:49:36.008Z,22.01
2023-04-17T03:50:07.871Z,22.02
2023-04-17T03:50:39.397Z,22.01
2023-04-17T03:51:10.939Z,22.01
2023-04-17T03:51:42.530Z,22.02
2023-04-17T03:52:14.129Z,22.01
2023-04-17T03:52:45.717Z,22.02
2023-04-17T03:53:17.328Z,22.01
2023-04-17T03:53:49.032Z,22.02
2023-04-17T03:54:20.658Z,22.01
2023-04-17T03:54:52.297Z,22.02
2023-04-17T03:55:24.043Z,22.00
2023-04-17T03:55:55.614Z,22.01
2023-04-17T03:56:27.141Z,22.02
2023-04-17T03:56:58.632Z,22.01
2023-04-17T03:57:30.204Z,22.01
2023-04-17T03:58:01.802Z,22.01
2023-04-17T03:58:33.412Z,22.02
2023-04-17T03:59:04.974Z,22.01
2023-04-17T03:59:36.790Z,22.00
2023-04-17T04:00:08.706Z,22.01
2023-04-17T04:00:40.266Z,22.00
2023-04-17T04:01:11.848Z,22.01
2023-04-17T04:01:45.390Z,22.00
2023-04-17T04:02:18.358Z,22.02
2023-04-17T04:02:50.208Z,22.01
2023-04-17T04:03:22.041Z,22.01
2023-04-17T04:03:54.477Z,22.02
2023-04-17T04:04:26.209Z,22.01
2023-04-17T04:04:57.894Z,22.02
2023-04-17T04:05:29.494Z,22.01
2023-04-17T04:06:01.030Z,22.02
2023-04-17T04:06:32.692Z,22.01
2023-04-17T04:07:04.228Z,22.01
2023-04-17T04:07:35.773Z,22.01
2023-04-17T04:08:07.311Z,22.00
2023-04-17T04:08:38.894Z,22.00
2023-04-17T04:09:10.734Z,22.00
2023-04-17T04:09:42.391Z,22.00
2023-04-17T04:10:14.080Z,22.00
2023-04-17T04:10:45.917Z,22.00
2023-04-17T04:11:17.542Z,22.01
2023-04-17T04:11:49.126Z,22.01
2023-04-17T04:12:20.631Z,22.02
2023-04-17T04:12:52.181Z,22.01
2023-04-17T04:13:23.700Z,22.01
2023-04-17T04:13:55.337Z,22.03
2023-04-17T04:14:26.875Z,22.00
2023-04-17T04:14:58.490Z,22.01
2023-04-17T04:15:30.056Z,22.01
2023-04-17T04:16:01.658Z,22.00
2023-04-17T04:16:33.268Z,22.02
2023-04-17T04:17:04.817Z,22.01
2023-04-17T04:17:36.386Z,22.01
2023-04-17T04:18:07.977Z,22.01
2023-04-17T04:18:39.559Z,22.01
2023-04-17T04:19:11.829Z,22.00
2023-04-17T04:19:43.744Z,22.00
2023-04-17T04:20:15.411Z,22.00
2023-04-17T04:20:46.972Z,22.01
2023-04-17T04:21:20.965Z,22.00
2023-04-17T04:21:52.523Z,22.00
2023-04-17T04:22:24.046Z,22.00
2023-04-17T04:22:55.621Z,22.00
2023-04-17T04:23:27.136Z,22.01
2023-04-17T04:23:58.694Z,22.01
2023-04-17T04:24:30.269Z,22.00
2023-04-17T04:25:01.887Z,22.00
2023-04-17T04:25:33.446Z,22.01
2023-04-17T04:26:05.009Z,22.02
2023-04-17T04:26:36.555Z,22.00
2023-04-17T04:27:10.713Z,22.00
2023-04-17T04:27:42.231Z,22.01
2023-04-17T04:28:13.760Z,22.00
2023-04-17T04:28:45.307Z,22.00
2023-04-17T04:29:20.229Z,22.00
2023-04-17T04:29:51.693Z,22.01
2023-04-17T04:30:23.215Z,22.00
2023-04-17T04:30:54.858Z,22.00
2023-04-17T04:31:26.663Z,22.01
2023-04-17T04:31:58.448Z,22.00
2023-04-17T04:32:30.088Z,22.00
2023-04-17T04:33:01.676Z,22.00
2023-04-17T04:33:33.295Z,22.01
2023-04-17T04:34:04.780Z,22.00
2023-04-17T04:34:36.280Z,22.01
2023-04-17T04:35:08.077Z,22.01
2023-04-17T04:35:39.677Z,22.01
2023-04-17T04:36:11.455Z,22.00
2023-04-17T04:36:43.013Z,22.01
2023-04-17T04:37:14.579Z,22.00
2023-04-17T04:37:46.158Z,22.00
2023-04-17T04:38:17.761Z,22.00
2023-04-17T04:38:49.398Z,22.00
2023-04-17T04:39:20.920Z,22.01
2023-04-17T04:39:52.525Z,22.01
2023-04-17T04:40:24.084Z,22.01
2023-04-17T04:40:55.842Z,22.00
2023-04-17T04:41:27.758Z,22.01
2023-04-17T04:41:59.377Z,22.00
2023-04-17T04:42:30.929Z,22.00
2023-04-17T04:43:02.526Z,22.00
2023-04-17T04:43:34.107Z,22.01
2023-04-17T04:44:05.786Z,22.00
2023-04-17T04:44:37.295Z,22.00
2023-04-17T04:45:09.104Z,22.01
2023-04-17T04:45:40.620Z,22.00
2023-04-17T04:46:12.237Z,22.01
2023-04-17T04:46:43.798Z,22.01
2023-04-17T04:47:15.316Z,22.01
2023-04-17T04:47:46.833Z,22.01
2023-04-17T04:48:18.500Z,22.00
2023-04-17T04:48:49.999Z,22.01
2023-04-17T04:49:21.564Z,22.00
2023-04-17T04:49:53.069Z,22.00
2023-04-17T04:50:24.608Z,22.01
2023-04-17T04:50:56.144Z,22.00
2023-04-17T04:51:27.840Z,21.99
2023-04-17T04:51:59.322Z,22.00
2023-04-17T04:52:30.906Z,22.00
2023-04-17T04:53:02.517Z,21.99
2023-04-17T04:53:34.031Z,22.00
2023-04-17T04:54:05.583Z,22.00
2023-04-17T04:54:37.221Z,21.99
2023-04-17T04:55:09.098Z,22.01
2023-04-17T04:55:40.666Z,22.00
2023-04-17T04:56:12.261Z,21.99
2023-04-17T04:56:43.860Z,22.00
2023-04-17T04:57:15.439Z,21.99
2023-04-17T04:57:46.950Z,22.00
2023-04-17T04:58:18.489Z,21.99
2023-04-17T04:58:50.353Z,21.99
2023-04-17T04:59:21.994Z,22.00
2023-04-17T04:59:53.620Z,22.00
2023-04-17T05:00:25.203Z,22.00
2023-04-17T05:00:56.785Z,22.00
2023-04-17T05:01:28.422Z,22.00
2023-04-17T05:02:00.474Z,22.00
2023-04-17T05:02:32.223Z,22.00
2023-04-17T05:03:04.017Z,22.00
2023-04-17T05:03:35.901Z,22.00
2023-04-17T05:04:07.586Z,21.99
2023-04-17T05:04:39.318Z,21.99
2023-04-17T05:05:11.158Z,21.99
2023-04-17T05:05:42.670Z,21.99
2023-04-17T05:06:14.296Z,22.00
2023-04-17T05:06:45.933Z,21.99
2023-04-17T05:07:17.555Z,22.00
2023-04-17T05:07:49.313Z,21.98
2023-04-17T05:08:20.893Z,22.00
2023-04-17T05:08:52.443Z,22.00
2023-04-17T05:09:23.975Z,21.99
2023-04-17T05:09:55.488Z,22.00
2023-04-17T05:10:27.075Z,21.99
2023-04-17T05:10:58.673Z,22.01
2023-04-17T05:11:30.274Z,21.99
2023-04-17T05:12:01.972Z,21.99
2023-04-17T05:12:33.545Z,22.00
2023-04-17T05:13:05.083Z,21.99
2023-04-17T05:13:36.642Z,21.99
2023-04-17T05:14:08.223Z,22.00
2023-04-17T05:14:39.804Z,22.00
2023-04-17T05:15:11.507Z,22.00
2023-04-17T05:15:43.089Z,22.00
2023-04-17T05:16:14.678Z,22.01
2023-04-17T05:16:46.438Z,22.00
2023-04-17T05:17:18.062Z,21.99
2023-04-17T05:17:50.000Z,21.99
2023-04-17T05:18:21.594Z,21.99
2023-04-17T05:18:53.194Z,21.99
2023-04-17T05:19:24.733Z,22.00
2023-04-17T05:19:56.311Z,22.00
2023-04-17T05:20:27.881Z,22.00
2023-04-17T05:20:59.434Z,22.00
2023-04-17T05:21:31.281Z,21.99
2023-04-17T05:22:02.920Z,22.00
2023-04-17T05:22:34.464Z,22.00
2023-04-17T05:23:06.146Z,21.99
2023-04-17T05:23:37.740Z,21.99
2023-04-17T05:24:09.290Z,21.99
2023-04-17T05:24:40.912Z,22.00
2023-04-17T05:25:12.415Z,21.99
2023-04-17T05:25:43.986Z,22.00
2023-04-17T05:26:15.473Z,21.99
2023-04-17T05:26:47.065Z,22.00
2023-04-17T05:27:18.621Z,22.00
2023-04-17T05:27:52.300Z,21.99
2023-04-17T05:28:23.996Z,21.99
2023-04-17T05:28:55.606Z,22.00
2023-04-17T05:29:27.178Z,21.99
2023-04-17T05:29:58.737Z,22.00
2023-04-17T05:30:30.375Z,21.99
2023-04-17T05:31:02.055Z,22.00
2023-04-17T05:31:33.679Z,21.99
2023-04-17T05:32:05.342Z,22.00
2023-04-17T05:32:36.965Z,21.99
2023-04-17T05:33:08.680Z,22.00
2023-04-17T05:33:40.292Z,21.99
2023-04-17T05:34:11.836Z,21.99
2023-04-17T05:34:43.334Z,21.99
2023-04-17T05:35:14.873Z,21.99
2023-04-17T05:35:46.456Z,21.98
2023-04-17T05:36:17.976Z,21.99
2023-04-17T05:36:49.634Z,21.99
2023-04-17T05:37:21.225Z,21.99
2023-04-17T05:37:53.077Z,21.99
2023-04-17T05:38:24.679Z,21.99
2023-04-17T05:38:56.177Z,22.00
2023-04-17T05:39:27.767Z,22.00
2023-04-17T05:39:59.312Z,21.99
2023-04-17T05:40:30.908Z,22.00
2023-04-17T05:41:02.599Z,21.99
2023-04-17T05:41:34.157Z,21.99
2023-04-17T05:42:05.831Z,21.99
2023-04-17T05:42:37.403Z,21.99
2023-04-17T05:43:09.423Z,21.99
2023-04-17T05:43:41.001Z,21.99
2023-04-17T05:44:12.628Z,22.00
2023-04-17T05:44:44.198Z,21.99
2023-04-17T05:45:15.760Z,21.99
2023-04-17T05:45:47.360Z,21.99
2023-04-17T05:46:19.437Z,21.99
2023-04-17T05:46:51.047Z,21.99
2023-04-17T05:47:25.532Z,21.99
2023-04-17T05:47:57.209Z,22.00
2023-04-17T05:48:29.136Z,21.99
2023-04-17T05:49:00.692Z,21.99
2023-04-17T05:49:32.227Z,21.99
2023-04-17T05:50:03.927Z,21.99
2023-04-17T05:50:35.670Z,21.99
2023-04-17T05:51:07.292Z,21.99
2023-04-17T05:51:38.838Z,21.98
2023-04-17T05:52:10.479Z,21.98
2023-04-17T05:52:42.075Z,21.98
2023-04-17T05:53:13.700Z,21.98
2023-04-17T05:53:45.222Z,21.99
2023-04-17T05:54:16.858Z,21.99
2023-04-17T05:54:48.430Z,21.98
2023-04-17T05:55:19.973Z,21.99
2023-04-17T05:55:51.553Z,21.98
2023-04-17T05:56:23.087Z,21.97
2023-04-17T05:56:54.569Z,21.99
2023-04-17T05:57:26.105Z,21.99
2023-04-17T05:57:58.372Z,21.99
2023-04-17T05:58:30.095Z,21.98
2023-04-17T05:59:01.694Z,21.98
2023-04-17T05:59:33.172Z,21.98
2023-04-17T06:00:05.057Z,21.97
2023-04-17T06:00:36.665Z,21.98
2023-04-17T06:01:08.520Z,21.99
2023-04-17T06:01:40.139Z,21.98
2023-04-17T06:02:11.718Z,21.98
2023-04-17T06:02:43.517Z,21.99
2023-04-17T06:03:18.279Z,21.98
2023-04-17T06:03:50.576Z,21.99
2023-04-17T06:04:22.577Z,21.97
2023-04-17T06:04:54.600Z,21.98
2023-04-17T06:05:26.403Z,21.98
2023-04-17T06:05:58.094Z,21.98
2023-04-17T06:06:29.659Z,21.97
2023-04-17T06:07:01.343Z,21.99
2023-04-17T06:07:33.279Z,21.99
2023-04-17T06:08:04.857Z,21.99
2023-04-17T06:08:36.425Z,21.99
2023-04-17T06:09:07.992Z,21.98
2023-04-17T06:09:39.641Z,21.99
2023-04-17T06:10:11.265Z,21.98
2023-04-17T06:10:42.859Z,21.98
2023-04-17T06:11:14.419Z,21.99
2023-04-17T06:11:45.974Z,21.99
2023-04-17T06:12:17.598Z,21.98
2023-04-17T06:12:49.416Z,21.98
2023-04-17T06:13:21.012Z,21.99
2023-04-17T06:13:52.531Z,21.98
2023-04-17T06:14:24.272Z,21.98
2023-04-17T06:14:55.841Z,21.98
2023-04-17T06:15:27.383Z,21.98
2023-04-17T06:15:59.037Z,21.98
2023-04-17T06:16:30.625Z,21.97
2023-04-17T06:17:02.410Z,21.99
2023-04-17T06:17:34.040Z,21.98
2023-04-17T06:18:05.692Z,21.98
2023-04-17T06:18:37.208Z,21.99
2023-04-17T06:19:08.789Z,21.98
2023-04-17T06:19:40.348Z,21.98
2023-04-17T06:20:12.008Z,21.98
2023-04-17T06:20:44.299Z,21.98
2023-04-17T06:21:15.866Z,21.99
2023-04-17T06:21:47.507Z,21.98
2023-04-17T06:22:18.982Z,21.96
2023-04-17T06:22:50.518Z,21.95
2023-04-17T06:23:22.160Z,21.98
2023-04-17T06:23:53.710Z,21.98
2023-04-17T06:24:25.272Z,21.97
2023-04-17T06:24:56.776Z,21.98
2023-04-17T06:25:28.370Z,21.99
2023-04-17T06:25:59.933Z,21.99
2023-04-17T06:26:31.551Z,22.01
2023-04-17T06:27:03.136Z,21.99
2023-04-17T06:27:36.529Z,22.01
2023-04-17T06:28:08.728Z,21.99
2023-04-17T06:28:40.186Z,21.99
2023-04-17T06:29:11.994Z,21.99
2023-04-17T06:29:43.800Z,21.99
2023-04-17T06:30:15.408Z,22.00
2023-04-17T06:30:47.011Z,22.01
2023-04-17T06:31:18.719Z,22.00
2023-04-17T06:31:50.315Z,22.02
2023-04-17T06:32:21.961Z,22.01
2023-04-17T06:32:53.593Z,22.01
2023-04-17T06:33:26.783Z,22.00
2023-04-17T06:33:58.635Z,22.00
2023-04-17T06:34:30.202Z,22.01
2023-04-17T06:35:01.824Z,22.01
2023-04-17T06:35:33.459Z,22.00
2023-04-17T06:36:05.045Z,22.01
2023-04-17T06:36:36.569Z,22.00
2023-04-17T06:37:08.158Z,22.00
2023-04-17T06:37:39.845Z,22.00
2023-04-17T06:38:11.380Z,22.00
2023-04-17T06:38:42.930Z,21.99
2023-04-17T06:39:14.567Z,22.00
2023-04-17T06:39:46.296Z,21.99
2023-04-17T06:40:17.894Z,22.01
2023-04-17T06:40:50.803Z,22.00
2023-04-17T06:41:24.139Z,22.01
2023-04-17T06:41:55.644Z,22.01
2023-04-17T06:42:27.193Z,22.00
2023-04-17T06:42:58.756Z,22.00
2023-04-17T06:43:30.337Z,22.00
2023-04-17T06:44:01.897Z,22.00
2023-04-17T06:44:33.450Z,22.00
2023-04-17T06:45:05.236Z,21.99
2023-04-17T06:45:36.845Z,21.99
2023-04-17T06:46:08.426Z,22.00
2023-04-17T06:46:40.021Z,21.99
2023-04-17T06:47:11.627Z,22.00
2023-04-17T06:47:45.320Z,21.99
2023-04-17T06:48:16.863Z,22.00
2023-04-17T06:48:48.452Z,22.00
2023-04-17T06:49:20.015Z,21.99